Time;durP1;ratioP1;P1;durP2;ratioP2;P2;SDS_P1;SDS_P2;PMS_P1;PMS_P2;Temp;Humidity;BMP_temperature;BMP_pressure;BME280_temperature;BME280_humidity;BME280_pressure;Samples;Min_cycle;Max_cycle;Signal;HPM_P1;HPM_P2
2023/11/23 00:00:58;;;;;;;13.52;8.45;;;;;;;5.83;53.72;101673.75;5087167;27;98926;-74
2023/11/23 00:03:25;;;;;;;13.13;8.38;;;;;;;5.90;53.67;101672.91;5087067;27;97084;-73
2023/11/23 00:05:51;;;;;;;10.48;7.57;;;;;;;6.24;52.79;101659.66;5080737;27;99265;-73
2023/11/23 00:08:19;;;;;;;13.68;8.20;;;;;;;6.16;52.70;101648.34;5085502;27;98731;-73
2023/11/23 00:10:46;;;;;;;16.20;8.38;;;;;;;6.02;53.04;101623.88;5087566;27;97925;-73
2023/11/23 00:13:12;;;;;;;12.35;8.00;;;;;;;5.64;53.89;101616.06;5086390;27;96886;-73
2023/11/23 00:15:39;;;;;;;12.18;8.10;;;;;;;5.98;53.30;101600.25;5084900;27;98692;-73
2023/11/23 00:18:05;;;;;;;13.65;8.27;;;;;;;5.94;53.85;101592.41;5086698;27;100498;-74
2023/11/23 00:20:31;;;;;;;13.73;7.93;;;;;;;6.04;53.49;101578.38;5080391;27;96727;-74
2023/11/23 00:22:58;;;;;;;12.18;7.30;;;;;;;6.25;53.10;101570.44;5084924;27;96843;-74
2023/11/23 00:25:27;;;;;;;13.63;7.38;;;;;;;6.27;52.79;101567.81;5089184;27;105697;-74
2023/11/23 00:27:54;;;;;;;12.38;7.57;;;;;;;6.18;52.64;101545.09;5080104;27;99086;-74
2023/11/23 00:30:21;;;;;;;12.30;7.90;;;;;;;6.29;52.52;101545.94;5079899;27;96879;-74
2023/11/23 00:32:48;;;;;;;12.15;7.22;;;;;;;6.27;52.94;101541.56;5082360;27;97715;-73
2023/11/23 00:35:14;;;;;;;14.15;6.95;;;;;;;6.27;53.04;101531.06;5086628;27;99054;-74
2023/11/23 00:37:41;;;;;;;11.85;7.03;;;;;;;6.20;52.98;101518.84;5077686;27;99384;-74
2023/11/23 00:40:08;;;;;;;14.23;7.93;;;;;;;6.44;52.86;101529.19;5088586;27;97542;-73
2023/11/23 00:42:36;;;;;;;14.63;6.82;;;;;;;6.29;53.06;101510.94;5082149;27;96992;-72
2023/11/23 00:45:02;;;;;;;9.95;7.03;;;;;;;6.21;53.93;101523.22;5079091;27;99340;-73
2023/11/23 00:47:28;;;;;;;10.10;6.72;;;;;;;6.34;53.72;101503.91;5080578;27;99285;-72
2023/11/23 00:49:55;;;;;;;11.02;7.80;;;;;;;6.28;53.76;101494.31;5086192;27;97604;-73
2023/11/23 00:52:22;;;;;;;12.52;7.60;;;;;;;6.34;53.90;101494.25;5080945;27;100105;-73
2023/11/23 00:54:48;;;;;;;12.20;7.30;;;;;;;6.19;54.31;101489.09;5084275;27;99750;-74
2023/11/23 00:57:15;;;;;;;13.63;7.80;;;;;;;6.38;54.10;101500.34;5087917;27;99023;-74
2023/11/23 00:59:42;;;;;;;10.90;6.97;;;;;;;6.46;53.73;101482.81;5081089;27;96773;-74
2023/11/23 01:02:09;;;;;;;12.70;6.90;;;;;;;6.41;54.21;101479.34;5078626;27;97747;-74
2023/11/23 01:04:37;;;;;;;12.10;6.68;;;;;;;6.38;54.48;101485.47;5090008;27;99369;-73
2023/11/23 01:07:04;;;;;;;17.27;6.78;;;;;;;6.55;53.66;101484.50;5077132;27;98878;-73
2023/11/23 01:09:30;;;;;;;11.23;6.43;;;;;;;6.54;53.67;101485.38;5088768;27;97061;-74
2023/11/23 01:11:58;;;;;;;8.70;6.00;;;;;;;6.41;54.20;101484.59;5085097;27;98803;-72
2023/11/23 01:14:24;;;;;;;8.52;6.00;;;;;;;6.36;54.32;101487.25;5082195;27;99418;-73
2023/11/23 01:16:52;;;;;;;8.73;5.60;;;;;;;6.36;54.06;101476.75;5090262;27;101579;-73
2023/11/23 01:19:18;;;;;;;10.90;6.22;;;;;;;6.57;53.63;101456.47;5084232;27;97019;-73
2023/11/23 01:21:45;;;;;;;10.98;6.53;;;;;;;6.72;52.91;101465.09;5079328;27;98567;-74
2023/11/23 01:24:11;;;;;;;11.00;5.18;;;;;;;6.95;52.44;101450.91;5074919;27;98863;-74
2023/11/23 01:26:38;;;;;;;8.93;5.15;;;;;;;6.83;52.39;101441.34;5087190;27;99679;-73
2023/11/23 01:29:04;;;;;;;8.60;5.22;;;;;;;6.87;52.56;101435.19;5087420;27;97018;-73
2023/11/23 01:31:31;;;;;;;6.40;4.85;;;;;;;6.89;52.75;101433.44;5083705;27;98135;-74
2023/11/23 01:33:59;;;;;;;8.77;5.20;;;;;;;6.71;53.29;101426.56;5087998;27;100968;-74
2023/11/23 01:36:27;;;;;;;8.82;5.25;;;;;;;6.77;53.05;101426.53;5078562;27;99146;-74
2023/11/23 01:38:53;;;;;;;9.63;4.82;;;;;;;6.75;52.96;101427.44;5087773;27;101371;-74
2023/11/23 01:41:20;;;;;;;7.53;4.25;;;;;;;6.72;53.56;101424.81;5082568;27;97104;-74
2023/11/23 01:43:47;;;;;;;9.00;4.68;;;;;;;6.84;53.41;101423.84;5085941;27;98468;-73
2023/11/23 01:46:13;;;;;;;9.32;4.53;;;;;;;6.94;53.31;101415.88;5076946;27;98212;-74
2023/11/23 01:48:41;;;;;;;8.48;4.80;;;;;;;7.10;52.85;101414.81;5086585;27;96808;-74
2023/11/23 01:51:12;;;;;;;6.70;4.20;;;;;;;7.15;52.73;101409.53;5083874;27;97731;-75
2023/11/23 01:53:38;;;;;;;5.85;3.80;;;;;;;6.49;54.49;101409.28;5083386;27;98820;-74
2023/11/23 01:56:08;;;;;;;5.60;3.97;;;;;;;6.38;54.93;101395.34;5085865;27;98867;-73
2023/11/23 01:58:34;;;;;;;7.95;4.00;;;;;;;6.54;55.20;101404.84;5081872;27;96858;-74
2023/11/23 02:01:02;;;;;;;6.80;3.92;;;;;;;6.56;55.44;101408.34;5088556;27;96873;-74
2023/11/23 02:03:28;;;;;;;6.45;4.20;;;;;;;6.69;55.20;101382.84;5083458;27;99011;-73
2023/11/23 02:05:55;;;;;;;6.18;3.72;;;;;;;6.93;54.72;101374.72;5090483;27;98885;-74
2023/11/23 02:08:22;;;;;;;5.97;3.60;;;;;;;6.86;54.31;101374.78;5087918;27;99262;-74
2023/11/23 02:10:49;;;;;;;4.15;3.22;;;;;;;6.95;54.37;101361.56;5087780;27;97066;-75
2023/11/23 02:13:16;;;;;;;7.95;3.85;;;;;;;7.13;53.68;101343.81;5085790;27;100391;-73
2023/11/23 02:15:42;;;;;;;6.22;3.78;;;;;;;7.25;53.79;101371.72;5084037;27;98969;-72
2023/11/23 02:18:10;;;;;;;6.47;3.58;;;;;;;7.27;53.86;101358.56;5082889;27;97637;-73
2023/11/23 02:20:36;;;;;;;5.05;3.38;;;;;;;6.88;55.11;101333.63;5091211;27;98013;-72
2023/11/23 02:23:03;;;;;;;6.43;3.83;;;;;;;7.14;54.62;101357.84;5083815;27;101805;-77
2023/11/23 02:25:31;;;;;;;5.63;3.58;;;;;;;7.25;54.68;101352.44;5088984;27;99247;-76
2023/11/23 02:27:57;;;;;;;8.75;3.55;;;;;;;7.11;55.24;101337.72;5080166;27;96872;-76
2023/11/23 02:30:24;;;;;;;6.13;3.03;;;;;;;7.06;55.41;101347.41;5087392;27;98408;-75
2023/11/23 02:32:50;;;;;;;6.28;3.42;;;;;;;6.91;57.24;101334.44;5087837;27;97748;-76
2023/11/23 02:35:18;;;;;;;;;;;;;;;7.12;56.86;101328.06;5081923;27;100716;-76
2023/11/23 02:37:44;;;;;;;3.58;2.67;;;;;;;7.15;55.95;101335.94;5082143;27;99818;-73
2023/11/23 02:40:11;;;;;;;4.68;3.17;;;;;;;7.45;55.24;101319.75;5085036;27;96771;-73
2023/11/23 02:42:39;;;;;;;4.85;3.08;;;;;;;7.58;54.98;101331.84;5081465;27;98840;-73
2023/11/23 02:45:07;;;;;;;7.13;3.15;;;;;;;7.56;54.96;101328.34;5091892;27;97769;-73
2023/11/23 02:47:34;;;;;;;9.80;3.33;;;;;;;7.52;55.17;101318.78;5087874;27;97173;-74
2023/11/23 02:50:00;;;;;;;5.18;2.95;;;;;;;7.57;55.07;101316.94;5089600;27;97045;-72
2023/11/23 02:52:27;;;;;;;8.70;3.20;;;;;;;7.87;54.49;101320.91;5087827;27;99165;-73
2023/11/23 02:54:54;;;;;;;6.72;3.17;;;;;;;7.69;54.98;101313.25;5086951;27;99297;-73
2023/11/23 02:57:20;;;;;;;5.13;3.03;;;;;;;7.69;55.02;101310.63;5090562;27;98401;-73
2023/11/23 02:59:48;;;;;;;4.47;2.92;;;;;;;7.75;55.49;101309.66;5085688;27;97780;-72
2023/11/23 03:02:15;;;;;;;6.10;3.35;;;;;;;7.89;55.12;101307.69;5080065;27;99215;-72
2023/11/23 03:04:41;;;;;;;3.83;2.90;;;;;;;7.87;55.43;101314.78;5087416;27;99119;-72
2023/11/23 03:07:08;;;;;;;4.43;2.65;;;;;;;7.85;55.72;101311.28;5077210;27;97679;-72
2023/11/23 03:09:35;;;;;;;6.32;2.72;;;;;;;7.91;56.00;101301.53;5085245;27;97855;-72
2023/11/23 03:12:01;;;;;;;4.60;2.83;;;;;;;8.10;55.40;101302.09;5086171;27;99149;-70
2023/11/23 03:14:28;;;;;;;5.03;3.05;;;;;;;7.97;56.05;101287.41;5089561;27;99221;-71
2023/11/23 03:16:58;;;;;;;5.28;2.72;;;;;;;8.01;56.37;101274.16;5085166;27;96744;-71
2023/11/23 03:19:25;;;;;;;5.30;2.70;;;;;;;8.02;56.45;101288.19;5085827;27;96816;-70
2023/11/23 03:21:51;;;;;;;6.03;2.55;;;;;;;7.90;57.23;101273.47;5088492;27;99183;-71
2023/11/23 03:24:18;;;;;;;4.45;2.58;;;;;;;7.70;58.20;101272.91;5085746;27;101238;-71
2023/11/23 03:26:45;;;;;;;5.97;2.95;;;;;;;7.80;58.17;101268.41;5083742;27;99911;-71
2023/11/23 03:29:12;;;;;;;5.93;2.90;;;;;;;8.12;57.37;101273.13;5088631;27;96870;-71
2023/11/23 03:31:38;;;;;;;7.80;3.33;;;;;;;8.09;57.75;101271.41;5083079;27;101046;-71
2023/11/23 03:34:06;;;;;;;6.40;2.83;;;;;;;8.02;58.14;101277.66;5087568;27;98710;-71
2023/11/23 03:36:33;;;;;;;7.47;3.13;;;;;;;8.04;58.46;101264.50;5086885;27;96727;-71
2023/11/23 03:38:59;;;;;;;5.70;3.10;;;;;;;8.12;58.24;101275.75;5085429;27;97786;-70
2023/11/23 03:41:26;;;;;;;5.35;3.13;;;;;;;7.88;59.17;101264.72;5077139;27;100604;-70
2023/11/23 03:43:52;;;;;;;3.35;2.47;;;;;;;8.15;58.70;101262.53;5089214;27;101250;-71
2023/11/23 03:46:19;;;;;;;4.80;3.10;;;;;;;8.21;58.20;101247.50;5080901;27;96852;-70
2023/11/23 03:48:46;;;;;;;5.10;2.83;;;;;;;8.01;59.50;101234.69;5084783;27;97076;-70
2023/11/23 03:51:14;;;;;;;7.32;3.10;;;;;;;8.15;59.14;101255.50;5079551;27;97841;-70
2023/11/23 03:53:40;;;;;;;6.50;2.85;;;;;;;8.06;59.76;101245.16;5081296;27;98350;-71
2023/11/23 03:56:08;;;;;;;4.60;3.05;;;;;;;8.27;59.53;101250.00;5087982;27;96892;-70
2023/11/23 03:58:34;;;;;;;6.47;3.00;;;;;;;8.31;59.81;101229.81;5086021;27;96886;-71
2023/11/23 04:01:00;;;;;;;3.75;2.63;;;;;;;8.27;60.26;101223.69;5087915;27;99245;-71
2023/11/23 04:03:28;;;;;;;4.47;2.78;;;;;;;8.45;59.38;101230.44;5084130;27;99133;-71
2023/11/23 04:05:54;;;;;;;7.10;3.20;;;;;;;8.33;60.23;101221.00;5088511;27;97885;-71
2023/11/23 04:08:23;;;;;;;3.95;2.85;;;;;;;8.30;61.35;101215.78;5087310;27;97001;-71
2023/11/23 04:10:49;;;;;;;6.00;3.08;;;;;;;8.30;61.55;101213.16;5080688;27;101429;-70
2023/11/23 04:13:16;;;;;;;5.28;3.05;;;;;;;8.38;61.46;101213.88;5079683;27;98845;-73
2023/11/23 04:15:42;;;;;;;11.10;3.10;;;;;;;8.39;61.49;101209.47;5084277;27;98549;-73
2023/11/23 04:18:09;;;;;;;4.57;2.90;;;;;;;8.49;61.54;101228.59;5085851;27;98260;-74
2023/11/23 04:20:35;;;;;;;4.32;3.22;;;;;;;8.39;62.50;101220.88;5084662;27;99519;-74
2023/11/23 04:23:02;;;;;;;6.05;3.15;;;;;;;8.22;63.59;101222.91;5080169;27;98764;-70
2023/11/23 04:25:29;;;;;;;4.97;3.15;;;;;;;8.29;63.70;101214.00;5081721;27;98739;-71
2023/11/23 04:27:57;;;;;;;7.38;3.78;;;;;;;8.61;63.03;101210.78;5085985;27;98365;-71
2023/11/23 04:30:24;;;;;;;15.98;3.25;;;;;;;8.72;62.52;101178.97;5083928;27;100723;-71
2023/11/23 04:32:50;;;;;;;4.88;3.47;;;;;;;8.43;63.97;101194.47;5077934;27;99180;-71
2023/11/23 04:35:18;;;;;;;6.65;3.35;;;;;;;8.74;63.34;101201.72;5078852;27;98558;-70
2023/11/23 04:37:45;;;;;;;11.30;3.60;;;;;;;9.01;62.16;101195.00;5083288;27;98140;-71
2023/11/23 04:40:11;;;;;;;8.98;3.90;;;;;;;8.94;62.99;101190.75;5078132;27;98812;-70
2023/11/23 04:42:40;;;;;;;9.43;3.70;;;;;;;8.50;64.77;101180.28;5084862;27;97510;-70
2023/11/23 04:45:08;;;;;;;7.63;3.90;;;;;;;8.76;64.56;101183.25;5086071;27;96891;-70
2023/11/23 04:47:34;;;;;;;8.43;3.72;;;;;;;9.07;63.37;101172.91;5088205;27;96877;-70
2023/11/23 04:50:00;;;;;;;5.95;2.80;;;;;;;8.85;64.47;101166.41;5088481;27;98979;-72
2023/11/23 04:52:27;;;;;;;7.90;3.92;;;;;;;8.43;66.58;101181.31;5086218;27;99313;-71
2023/11/23 04:54:53;;;;;;;8.50;3.97;;;;;;;8.67;66.32;101183.44;5089198;27;96718;-71
2023/11/23 04:57:20;;;;;;;8.18;4.22;;;;;;;8.68;66.49;101175.50;5085606;27;96861;-73
2023/11/23 04:59:47;;;;;;;9.23;4.30;;;;;;;8.91;65.84;101176.81;5085719;27;99183;-73
2023/11/23 05:02:14;;;;;;;6.82;3.78;;;;;;;8.65;66.73;101164.19;5078608;27;98785;-73
2023/11/23 05:04:40;;;;;;;7.05;4.72;;;;;;;8.67;67.65;101165.88;5086744;27;97064;-73
2023/11/23 05:07:07;;;;;;;5.78;3.83;;;;;;;8.82;67.12;101166.44;5089099;27;97243;-74
2023/11/23 05:09:33;;;;;;;9.32;4.38;;;;;;;9.03;66.60;101158.94;5085177;27;98924;-73
2023/11/23 05:11:59;;;;;;;7.72;4.47;;;;;;;8.96;66.99;101159.97;5080143;27;100158;-72
2023/11/23 05:14:26;;;;;;;7.60;4.40;;;;;;;9.20;66.60;101143.59;5078300;27;98533;-73
2023/11/23 05:16:54;;;;;;;10.55;4.38;;;;;;;9.35;65.79;101154.69;5083824;27;98789;-72
2023/11/23 05:19:20;;;;;;;9.60;5.25;;;;;;;9.04;67.51;101152.78;5085666;27;99884;-72
2023/11/23 05:21:47;;;;;;;9.13;3.88;;;;;;;9.08;67.95;101158.81;5081254;27;98967;-74
2023/11/23 05:24:13;;;;;;;6.40;4.43;;;;;;;9.32;67.12;101150.34;5087218;27;99333;-73
2023/11/23 05:26:39;;;;;;;7.65;4.90;;;;;;;9.17;68.59;101154.22;5081295;27;96995;-74
2023/11/23 05:29:06;;;;;;;8.68;4.82;;;;;;;9.06;69.67;101153.59;5087146;27;98813;-74
2023/11/23 05:31:32;;;;;;;10.98;5.07;;;;;;;8.91;71.51;101164.50;5081033;27;98741;-73
2023/11/23 05:34:02;;;;;;;10.18;5.00;;;;;;;9.07;71.42;101155.31;5075684;27;97047;-74
2023/11/23 05:36:29;;;;;;;9.32;5.30;;;;;;;9.07;72.22;101162.34;5084541;27;96875;-74
2023/11/23 05:38:55;;;;;;;8.18;5.20;;;;;;;8.90;74.06;101168.03;5079115;27;98544;-73
2023/11/23 05:41:21;;;;;;;9.65;5.10;;;;;;;9.23;73.14;101158.47;5080452;27;97823;-73
2023/11/23 05:43:50;;;;;;;11.18;5.72;;;;;;;9.35;73.02;101152.03;5087297;27;96870;-74
2023/11/23 05:46:17;;;;;;;9.35;5.97;;;;;;;9.17;74.28;101143.69;5084718;27;97180;-73
2023/11/23 05:48:44;;;;;;;11.50;7.03;;;;;;;9.33;73.73;101138.88;5084982;27;99275;-72
2023/11/23 05:51:12;;;;;;;12.82;6.78;;;;;;;9.01;75.83;101126.47;5084236;27;99524;-74
2023/11/23 05:53:38;;;;;;;11.52;6.60;;;;;;;9.11;76.33;101133.28;5078963;27;99715;-73
2023/11/23 05:56:05;;;;;;;11.98;6.72;;;;;;;9.42;75.48;101114.06;5088487;27;97112;-74
2023/11/23 05:58:32;;;;;;;12.05;7.20;;;;;;;9.41;75.93;101100.00;5084202;27;98873;-74
2023/11/23 06:00:58;;;;;;;15.38;7.38;;;;;;;9.32;76.67;101109.94;5087153;27;97625;-75
2023/11/23 06:03:24;;;;;;;14.23;6.78;;;;;;;9.50;76.12;101105.06;5083801;27;96733;-74
2023/11/23 06:05:51;;;;;;;11.32;6.93;;;;;;;9.77;74.38;101110.53;5087756;27;98307;-74
2023/11/23 06:08:19;;;;;;;12.82;7.20;;;;;;;9.77;75.04;101111.41;5079976;27;99449;-75
2023/11/23 06:10:46;;;;;;;13.45;7.00;;;;;;;9.57;76.42;101104.00;5088029;27;97565;-74
2023/11/23 06:13:14;;;;;;;11.32;7.20;;;;;;;9.53;76.51;101099.69;5090383;27;96860;-73
2023/11/23 06:15:40;;;;;;;29.75;7.68;;;;;;;9.57;76.88;101116.34;5087917;27;97532;-73
2023/11/23 06:18:07;;;;;;;13.13;7.85;;;;;;;9.41;78.25;101107.06;5088705;27;99163;-78
2023/11/23 06:20:33;;;;;;;11.95;7.10;;;;;;;9.31;78.95;101116.13;5080115;27;101274;-76
2023/11/23 06:22:59;;;;;;;12.77;7.88;;;;;;;9.48;78.90;101106.88;5087895;27;98274;-77
2023/11/23 06:25:27;;;;;;;12.48;7.72;;;;;;;9.56;79.18;101115.47;5082540;27;97773;-74
2023/11/23 06:27:53;;;;;;;12.63;7.85;;;;;;;9.36;80.91;101101.03;5081372;27;101348;-76
2023/11/23 06:30:20;;;;;;;13.52;7.97;;;;;;;9.37;82.08;101097.50;5083151;27;98797;-77
2023/11/23 06:32:47;;;;;;;13.07;7.90;;;;;;;9.72;80.29;101094.81;5084446;27;96928;-77
2023/11/23 06:35:14;;;;;;;14.43;8.00;;;;;;;9.84;79.52;101093.63;5080124;27;96837;-76
2023/11/23 06:37:41;;;;;;;15.50;7.97;;;;;;;9.99;79.28;101078.22;5081304;27;97759;-74
2023/11/23 06:40:09;;;;;;;13.20;7.75;;;;;;;9.64;81.27;101078.34;5082664;27;101354;-74
2023/11/23 06:42:36;;;;;;;11.68;7.60;;;;;;;9.80;80.81;101069.09;5081182;27;97152;-74
2023/11/23 06:45:03;;;;;;;19.73;8.98;;;;;;;9.43;84.04;101078.88;5088424;27;96876;-74
2023/11/23 06:47:29;;;;;;;11.45;8.27;;;;;;;9.52;83.47;101068.06;5080439;27;99029;-75
2023/11/23 06:49:56;;;;;;;14.98;8.68;;;;;;;9.54;84.43;101066.28;5080610;27;98810;-74
2023/11/23 06:52:22;;;;;;;18.02;8.80;;;;;;;9.42;85.70;101058.69;5089390;27;96773;-74
2023/11/23 06:54:49;;;;;;;13.10;7.93;;;;;;;9.54;85.71;101058.34;5087342;27;97388;-74
2023/11/23 06:57:15;;;;;;;13.90;8.77;;;;;;;9.50;85.70;101052.31;5092280;27;98868;-74
2023/11/23 06:59:44;;;;;;;16.75;10.10;;;;;;;9.76;84.34;101048.97;5091447;27;98739;-74
2023/11/23 07:02:11;;;;;;;16.95;9.25;;;;;;;9.75;85.21;101039.31;5093412;27;96938;-75
2023/11/23 07:04:38;;;;;;;14.88;7.95;;;;;;;9.42;86.92;101038.44;5081067;27;96861;-73
2023/11/23 07:07:06;;;;;;;11.27;8.10;;;;;;;9.52;86.45;101044.31;5086453;27;98970;-74
2023/11/23 07:09:32;;;;;;;18.13;8.82;;;;;;;9.48;86.86;101032.13;5091077;27;98167;-73
2023/11/23 07:11:59;;;;;;;12.70;8.15;;;;;;;9.67;86.87;101043.94;5084121;27;97278;-73
2023/11/23 07:14:25;;;;;;;11.85;8.77;;;;;;;9.80;85.85;101037.41;5083865;27;98310;-73
2023/11/23 07:16:54;;;;;;;11.23;8.40;;;;;;;9.74;86.53;101029.66;5082850;27;100987;-73
2023/11/23 07:19:21;;;;;;;13.20;8.65;;;;;;;9.76;86.02;101022.59;5079777;27;97515;-76
2023/11/23 07:21:49;;;;;;;12.40;8.30;;;;;;;9.84;85.86;101009.19;5086049;27;97031;-76
2023/11/23 07:24:15;;;;;;;14.98;7.78;;;;;;;9.73;86.65;101021.78;5080431;27;97978;-75
2023/11/23 07:26:42;;;;;;;16.02;8.57;;;;;;;10.10;85.14;101016.34;5090240;27;101715;-75
2023/11/23 07:29:09;;;;;;;12.90;8.60;;;;;;;10.09;84.78;100996.13;5090179;27;98905;-76
2023/11/23 07:31:36;;;;;;;14.05;8.35;;;;;;;9.94;84.35;101005.34;5088119;27;96841;-76
2023/11/23 07:34:04;;;;;;;12.20;7.97;;;;;;;9.59;86.96;101007.19;5081010;27;97614;-75
2023/11/23 07:36:32;;;;;;;12.65;8.70;;;;;;;9.75;86.33;100973.34;5088898;27;101235;-75
2023/11/23 07:38:59;;;;;;;16.60;10.95;;;;;;;9.90;85.21;100977.31;5085861;27;99150;-77
2023/11/23 07:41:25;;;;;;;18.45;9.05;;;;;;;9.86;85.32;100981.81;5089478;27;96810;-75
2023/11/23 07:43:52;;;;;;;15.68;9.30;;;;;;;9.91;85.54;100979.91;5086137;27;97826;-74
2023/11/23 07:46:19;;;;;;;9.95;7.15;;;;;;;9.70;86.37;100988.44;5085289;27;99185;-74
2023/11/23 07:48:50;;;;;;;14.88;8.13;;;;;;;9.64;87.80;100985.13;5085343;27;101264;-75
2023/11/23 07:51:18;;;;;;;14.38;7.35;;;;;;;9.45;89.37;100969.78;5085966;27;98649;-77
2023/11/23 07:53:45;;;;;;;10.48;7.13;;;;;;;9.59;89.52;100982.59;5089830;27;96774;-76
2023/11/23 07:56:11;;;;;;;13.82;8.13;;;;;;;9.92;87.88;100978.13;5085815;27;98786;-78
2023/11/23 07:58:37;;;;;;;12.68;7.95;;;;;;;9.77;88.22;100978.59;5084191;27;98683;-78
2023/11/23 08:01:04;;;;;;;11.75;7.50;;;;;;;9.86;88.29;100963.34;5082573;27;97514;-77
2023/11/23 08:03:31;;;;;;;11.30;7.45;;;;;;;10.13;87.08;100971.34;5084453;27;96845;-76
2023/11/23 08:05:57;;;;;;;10.70;7.25;;;;;;;10.30;85.91;100963.84;5087704;27;99030;-76
2023/11/23 08:08:25;;;;;;;11.55;7.60;;;;;;;10.37;85.72;100946.88;5089784;27;99050;-78
2023/11/23 08:10:51;;;;;;;11.00;7.28;;;;;;;10.13;87.03;100944.94;5089268;27;96884;-76
2023/11/23 08:13:20;;;;;;;11.20;7.15;;;;;;;10.48;85.11;100944.75;5086028;27;96880;-73
2023/11/23 08:15:46;;;;;;;20.20;6.90;;;;;;;10.78;83.35;100945.53;5084289;27;99316;-72
2023/11/23 08:18:13;;;;;;;11.45;7.30;;;;;;;10.16;86.19;100936.94;5079993;27;101227;-73
2023/11/23 08:20:39;;;;;;;10.98;7.28;;;;;;;10.35;85.98;100927.56;5083170;27;97123;-75
2023/11/23 08:23:07;;;;;;;10.68;7.22;;;;;;;10.26;86.05;100928.72;5083809;27;98234;-75
2023/11/23 08:25:35;;;;;;;9.57;6.85;;;;;;;10.34;86.48;100934.63;5078139;27;98935;-75
2023/11/23 08:28:02;;;;;;;9.85;6.93;;;;;;;10.26;86.64;100928.72;5085286;27;97998;-75
2023/11/23 08:30:28;;;;;;;10.00;6.90;;;;;;;10.17;86.59;100925.50;5085493;27;97319;-75
2023/11/23 08:32:55;;;;;;;12.68;6.40;;;;;;;10.00;88.21;100916.28;5089689;27;97623;-75
2023/11/23 08:35:22;;;;;;;11.50;7.00;;;;;;;10.22;87.58;100908.59;5079001;27;99087;-75
2023/11/23 08:38:11;;;;;;;9.20;6.63;;;;;;;10.01;88.76;100917.16;5082110;27;98857;-76
2023/11/23 08:40:58;;;;;;;9.55;7.22;;;;;;;9.99;89.71;100908.41;5074921;27;99150;-77
2023/11/23 08:43:25;;;;;;;11.07;7.63;;;;;;;10.29;87.91;100904.00;5084547;27;97036;-76
2023/11/23 08:45:51;;;;;;;10.07;7.65;;;;;;;10.55;86.35;100909.31;5085920;27;98448;-75
2023/11/23 08:48:22;;;;;;;10.88;7.43;;;;;;;10.41;86.76;100884.25;5087920;27;101648;-75
2023/11/23 08:50:48;;;;;;;11.30;7.15;;;;;;;10.52;86.47;100900.59;5089798;27;97415;-75
2023/11/23 08:53:16;;;;;;;12.15;7.47;;;;;;;10.26;87.86;100891.72;5088626;27;96792;-76
2023/11/23 08:55:48;;;;;;;12.45;6.78;;;;;;;10.54;86.24;100881.16;5082634;27;100313;-76
2023/11/23 08:58:14;;;;;;;11.85;7.43;;;;;;;10.14;88.41;100891.22;5081609;27;98737;-75
2023/11/23 09:00:41;;;;;;;12.05;7.88;;;;;;;10.38;87.36;100879.91;5088684;27;97205;-75
2023/11/23 09:03:09;;;;;;;11.82;7.45;;;;;;;10.69;85.36;100871.84;5074061;27;99165;-76
2023/11/23 09:05:35;;;;;;;12.32;8.18;;;;;;;10.87;84.42;100868.56;5079302;27;100947;-75
2023/11/23 09:08:06;;;;;;;11.82;7.10;;;;;;;10.75;84.04;100861.94;5074568;27;101787;-75
2023/11/23 09:10:32;;;;;;;10.35;6.88;;;;;;;10.55;85.10;100867.03;5083672;27;97755;-75
2023/11/23 09:13:01;;;;;;;13.18;7.72;;;;;;;10.62;84.23;100862.41;5079855;27;97235;-74
2023/11/23 09:15:28;;;;;;;11.23;6.85;;;;;;;10.64;83.77;100864.06;5085162;27;97791;-75
2023/11/23 09:17:55;;;;;;;11.35;7.50;;;;;;;10.77;83.53;100870.66;5081155;27;97478;-74
2023/11/23 09:20:21;;;;;;;11.38;7.47;;;;;;;10.69;83.65;100867.44;5085578;27;97295;-74
2023/11/23 09:22:48;;;;;;;11.15;7.30;;;;;;;10.85;83.15;100851.88;5076665;27;97354;-74
2023/11/23 09:25:16;;;;;;;12.43;7.35;;;;;;;11.08;81.73;100851.09;5077599;27;99043;-75
2023/11/23 09:27:50;;;;;;;11.65;7.13;;;;;;;11.02;82.15;100843.38;5086052;27;101096;-76
2023/11/23 09:30:18;;;;;;;12.93;7.07;;;;;;;11.05;81.66;100827.38;5082772;27;98678;-75
2023/11/23 09:32:44;;;;;;;10.73;6.70;;;;;;;11.20;81.04;100824.19;5083770;27;97480;-74
2023/11/23 09:35:11;;;;;;;11.25;7.28;;;;;;;11.19;80.73;100822.47;5081416;27;101765;-74
2023/11/23 09:37:37;;;;;;;14.52;7.10;;;;;;;10.96;81.90;100825.91;5078648;27;97614;-76
2023/11/23 09:40:08;;;;;;;11.95;7.28;;;;;;;10.92;82.34;100832.25;5080250;27;98142;-75
2023/11/23 09:42:38;;;;;;;10.88;6.75;;;;;;;10.71;83.73;100818.00;5077599;27;96892;-75
2023/11/23 09:45:08;;;;;;;10.98;6.68;;;;;;;10.62;84.01;100805.13;5077215;27;99174;-76
2023/11/23 09:47:37;;;;;;;11.00;6.80;;;;;;;10.57;84.93;100800.88;5082187;27;98760;-75
2023/11/23 09:50:04;;;;;;;10.27;7.00;;;;;;;11.01;82.93;100786.13;5083737;27;97753;-75
2023/11/23 09:52:33;;;;;;;11.02;6.75;;;;;;;10.93;82.42;100788.16;5082208;27;96848;-75
2023/11/23 09:55:01;;;;;;;9.15;6.35;;;;;;;10.78;83.15;100774.59;5083450;27;99842;-76
2023/11/23 09:57:28;;;;;;;10.93;6.47;;;;;;;10.73;84.06;100781.81;5081905;27;98810;-75
2023/11/23 09:59:55;;;;;;;12.73;6.97;;;;;;;10.90;83.41;100799.72;5084438;27;98152;-76
2023/11/23 10:02:23;;;;;;;13.70;6.53;;;;;;;10.75;83.67;100789.69;5080131;27;97042;-75
2023/11/23 10:04:57;;;;;;;9.15;6.35;;;;;;;10.48;86.04;100785.38;5080332;27;99602;-75
2023/11/23 10:07:24;;;;;;;10.57;6.88;;;;;;;10.26;87.53;100779.94;5080161;27;98875;-75
2023/11/23 10:09:51;;;;;;;15.32;8.05;;;;;;;10.51;86.85;100774.69;5080430;27;97315;-75
2023/11/23 10:12:19;;;;;;;10.57;7.00;;;;;;;10.58;85.54;100766.50;5086301;27;96934;-77
2023/11/23 10:14:45;;;;;;;11.60;6.85;;;;;;;10.52;86.82;100758.78;5082074;27;100854;-75
2023/11/23 10:17:11;;;;;;;10.00;6.72;;;;;;;10.86;85.17;100760.22;5077208;27;98783;-76
2023/11/23 10:19:38;;;;;;;11.05;6.90;;;;;;;10.96;84.98;100743.97;5081623;27;97746;-75
2023/11/23 10:22:06;;;;;;;12.02;6.85;;;;;;;10.69;86.37;100718.56;5081601;27;98937;-76
2023/11/23 10:24:34;;;;;;;11.77;6.43;;;;;;;10.86;85.91;100723.22;5080722;27;99181;-74
2023/11/23 10:27:00;;;;;;;9.57;6.85;;;;;;;10.63;87.16;100714.34;5082664;27;99152;-75
2023/11/23 10:29:29;;;;;;;13.30;6.85;;;;;;;10.68;87.56;100714.19;5083689;27;97299;-75
2023/11/23 10:31:59;;;;;;;10.23;6.90;;;;;;;10.77;87.39;100698.84;5079659;27;97382;-76
2023/11/23 10:34:26;;;;;;;10.45;6.50;;;;;;;10.60;87.95;100690.69;5080559;27;98831;-75
2023/11/23 10:36:53;;;;;;;12.43;6.80;;;;;;;10.53;90.26;100694.47;5090305;27;98840;-76
2023/11/23 10:39:22;;;;;;;13.88;7.15;;;;;;;10.52;90.08;100671.59;5088241;27;97059;-76
2023/11/23 10:41:51;;;;;;;11.55;6.30;;;;;;;10.39;91.60;100679.09;5082375;27;96804;-75
2023/11/23 10:44:18;;;;;;;11.77;6.95;;;;;;;10.67;90.95;100681.63;5084772;27;99872;-76
2023/11/23 10:46:47;;;;;;;11.13;6.97;;;;;;;10.69;91.35;100655.13;5088886;27;99069;-75
2023/11/23 10:49:15;;;;;;;11.77;6.63;;;;;;;10.79;91.62;100654.72;5089361;27;97360;-75
2023/11/23 10:51:43;;;;;;;8.88;6.60;;;;;;;11.00;90.23;100645.13;5080980;27;96822;-75
2023/11/23 10:54:10;;;;;;;12.05;6.90;;;;;;;10.71;92.20;100635.66;5081604;27;100008;-76
2023/11/23 10:56:42;;;;;;;11.55;6.82;;;;;;;10.71;92.46;100642.72;5083538;27;101515;-76
2023/11/23 10:59:17;;;;;;;12.43;6.95;;;;;;;10.67;93.12;100643.75;5082442;27;97932;-76
2023/11/23 11:01:45;;;;;;;9.18;6.13;;;;;;;10.83;92.84;100634.31;5081540;27;97233;-75
2023/11/23 11:04:13;;;;;;;11.05;7.50;;;;;;;10.77;93.60;100624.84;5081698;27;99241;-75
2023/11/23 11:06:40;;;;;;;9.65;7.18;;;;;;;10.93;92.42;100621.63;5080493;27;98767;-75
2023/11/23 11:09:13;;;;;;;9.65;7.03;;;;;;;10.70;93.78;100633.91;5084160;27;97099;-76
2023/11/23 11:11:43;;;;;;;10.82;6.75;;;;;;;10.88;92.79;100627.09;5081382;27;98910;-76
2023/11/23 11:14:13;;;;;;;9.93;6.68;;;;;;;10.69;93.67;100640.16;5083497;27;102775;-75
2023/11/23 11:16:40;;;;;;;10.85;7.60;;;;;;;10.83;93.41;100630.84;5086395;27;98878;-75
2023/11/23 11:19:07;;;;;;;11.10;6.93;;;;;;;10.96;92.20;100640.84;5076964;27;98574;-76
2023/11/23 11:21:41;;;;;;;12.57;7.03;;;;;;;10.82;93.64;100634.41;5085738;27;98468;-75
2023/11/23 11:24:17;;;;;;;13.18;7.35;;;;;;;10.52;96.13;100623.19;5084888;27;102805;-75